KMOR/MOR METAR and TAF weather

Enter ICAO airport designator
Station Type Date Time Source
KMOR METAR 2019/04/20 22:55 UTC NOAA

KMOR 202255Z AUTO 26008G13KT 10SM FEW018 SCT055 OVC060 08/05 A2980 RMK A01


Station Type Date Time Source
KMOR Decoded METAR 2019/04/20 22:55 UTC NOAA

Station name not available
Apr 20, 2019 - 06:55 PM EDT / 2019.04.20 2255 UTC
Wind: from the W (260 degrees) at 9 MPH (8 KT) gusting to 15 MPH (13 KT):0
Visibility: 10 mile(s):0
Sky conditions: overcast
Temperature: 46 F (8 C)
Dew Point: 41 F (5 C)
Relative Humidity: 81%
Pressure (altimeter): 29.8 in. Hg (1009 hPa)
ob: KMOR 202255Z AUTO 26008G13KT 10SM FEW018 SCT055 OVC060 08/05 A2980 RMK A01
cycle: 23

Station Type Date Time Source
KMOR TAF UTC NOAA

Error!

Example: see airport list